Terminal Aerodrome Forecast
Issued by NWS

Home | Current Version | Previous Version | Graphics & Text | Print | Product List | Glossary On
Versions: 1 2 3 4 5 6 7 8 9 10 11 12 13 14 15 16 17 18 19 20 21 22 23 24 25 26 27 28 29 30 31 32 33 34
000
FTUS43 KLOT 241900 AAA
TAFORD
TAF AMD
KORD 241956Z 2420/2524 29008KT P6SM FEW012 OVC025
     FM242100 28011KT P6SM VCSH OVC009
     FM250300 26011G16KT P6SM SCT009 OVC015
     FM251300 23011G17KT P6SM BKN025
     FM251900 22011G17KT P6SM SCT025=

USA.gov is the U.S. government's official web portal to all federal, state and local government web resources and services.